sensor_id;sensor_type;location;lat;lon;timestamp;P1;durP1;ratioP1;P2;durP2;ratioP2
9775;SDS011;4927;52.472;13.108;2022-07-29T00:01:26;5.20;;;2.35;;
9775;SDS011;4927;52.472;13.108;2022-07-29T00:06:33;2.20;;;2.10;;
9775;SDS011;4927;52.472;13.108;2022-07-29T00:11:39;2.22;;;2.12;;
9775;SDS011;4927;52.472;13.108;2022-07-29T00:16:45;2.62;;;2.37;;
9775;SDS011;4927;52.472;13.108;2022-07-29T00:21:51;2.50;;;2.30;;
9775;SDS011;4927;52.472;13.108;2022-07-29T00:26:58;3.00;;;2.70;;
9775;SDS011;4927;52.472;13.108;2022-07-29T00:32:04;2.25;;;2.15;;
9775;SDS011;4927;52.472;13.108;2022-07-29T00:37:09;3.80;;;2.90;;
9775;SDS011;4927;52.472;13.108;2022-07-29T00:42:16;2.80;;;2.42;;
9775;SDS011;4927;52.472;13.108;2022-07-29T00:47:22;2.50;;;2.25;;
9775;SDS011;4927;52.472;13.108;2022-07-29T00:52:28;4.80;;;2.70;;
9775;SDS011;4927;52.472;13.108;2022-07-29T00:57:32;3.03;;;2.83;;
9775;SDS011;4927;52.472;13.108;2022-07-29T01:02:39;3.30;;;2.58;;
9775;SDS011;4927;52.472;13.108;2022-07-29T01:07:45;3.90;;;3.10;;
9775;SDS011;4927;52.472;13.108;2022-07-29T01:12:52;3.70;;;2.80;;
9775;SDS011;4927;52.472;13.108;2022-07-29T01:18:16;4.10;;;3.70;;
9775;SDS011;4927;52.472;13.108;2022-07-29T01:34:41;3.95;;;3.65;;
9775;SDS011;4927;52.472;13.108;2022-07-29T01:39:46;4.05;;;3.70;;
9775;SDS011;4927;52.472;13.108;2022-07-29T01:44:55;4.00;;;3.78;;
9775;SDS011;4927;52.472;13.108;2022-07-29T01:50:00;3.90;;;3.70;;
9775;SDS011;4927;52.472;13.108;2022-07-29T01:55:07;4.10;;;3.80;;
9775;SDS011;4927;52.472;13.108;2022-07-29T02:00:14;5.57;;;4.60;;
9775;SDS011;4927;52.472;13.108;2022-07-29T02:05:25;3.70;;;3.50;;
9775;SDS011;4927;52.472;13.108;2022-07-29T02:10:33;5.57;;;4.05;;
9775;SDS011;4927;52.472;13.108;2022-07-29T02:15:39;4.22;;;3.92;;
9775;SDS011;4927;52.472;13.108;2022-07-29T02:20:47;4.35;;;4.00;;
9775;SDS011;4927;52.472;13.108;2022-07-29T02:25:53;4.10;;;3.80;;
9775;SDS011;4927;52.472;13.108;2022-07-29T02:31:00;4.60;;;4.20;;
9775;SDS011;4927;52.472;13.108;2022-07-29T02:36:05;4.10;;;3.75;;
9775;SDS011;4927;52.472;13.108;2022-07-29T02:41:14;4.90;;;4.05;;
9775;SDS011;4927;52.472;13.108;2022-07-29T02:46:21;4.00;;;3.70;;
9775;SDS011;4927;52.472;13.108;2022-07-29T02:51:32;4.12;;;3.60;;
9775;SDS011;4927;52.472;13.108;2022-07-29T02:56:36;3.70;;;3.40;;
9775;SDS011;4927;52.472;13.108;2022-07-29T03:01:42;4.05;;;3.65;;
9775;SDS011;4927;52.472;13.108;2022-07-29T03:06:48;6.72;;;3.80;;
9775;SDS011;4927;52.472;13.108;2022-07-29T03:11:55;3.80;;;3.55;;
9775;SDS011;4927;52.472;13.108;2022-07-29T03:17:02;4.20;;;3.60;;
9775;SDS011;4927;52.472;13.108;2022-07-29T03:22:08;6.93;;;4.00;;
9775;SDS011;4927;52.472;13.108;2022-07-29T03:27:18;6.60;;;3.30;;
9775;SDS011;4927;52.472;13.108;2022-07-29T03:32:24;4.85;;;3.60;;
9775;SDS011;4927;52.472;13.108;2022-07-29T03:37:31;3.53;;;3.30;;
9775;SDS011;4927;52.472;13.108;2022-07-29T03:42:37;4.00;;;3.53;;
9775;SDS011;4927;52.472;13.108;2022-07-29T03:47:45;4.00;;;3.60;;
9775;SDS011;4927;52.472;13.108;2022-07-29T03:52:50;3.60;;;3.50;;
9775;SDS011;4927;52.472;13.108;2022-07-29T03:58:00;3.72;;;3.42;;
9775;SDS011;4927;52.472;13.108;2022-07-29T04:03:06;3.40;;;3.20;;
9775;SDS011;4927;52.472;13.108;2022-07-29T04:08:12;3.50;;;3.20;;
9775;SDS011;4927;52.472;13.108;2022-07-29T04:13:24;3.60;;;3.30;;
9775;SDS011;4927;52.472;13.108;2022-07-29T04:18:30;3.22;;;3.03;;
9775;SDS011;4927;52.472;13.108;2022-07-29T04:23:37;4.20;;;3.47;;
9775;SDS011;4927;52.472;13.108;2022-07-29T04:28:47;4.00;;;3.20;;
9775;SDS011;4927;52.472;13.108;2022-07-29T04:33:53;3.75;;;3.42;;
9775;SDS011;4927;52.472;13.108;2022-07-29T04:39:00;4.60;;;3.47;;
9775;SDS011;4927;52.472;13.108;2022-07-29T04:44:06;3.28;;;3.08;;
9775;SDS011;4927;52.472;13.108;2022-07-29T04:49:12;4.55;;;3.60;;
9775;SDS011;4927;52.472;13.108;2022-07-29T04:54:18;5.40;;;3.00;;
9775;SDS011;4927;52.472;13.108;2022-07-29T04:59:23;3.25;;;3.00;;
9775;SDS011;4927;52.472;13.108;2022-07-29T05:04:29;3.08;;;2.87;;
9775;SDS011;4927;52.472;13.108;2022-07-29T05:09:35;3.85;;;3.55;;
9775;SDS011;4927;52.472;13.108;2022-07-29T05:14:45;3.12;;;2.92;;
9775;SDS011;4927;52.472;13.108;2022-07-29T05:19:52;3.87;;;3.20;;
9775;SDS011;4927;52.472;13.108;2022-07-29T05:25:03;3.80;;;2.90;;
9775;SDS011;4927;52.472;13.108;2022-07-29T05:30:10;3.10;;;3.00;;
9775;SDS011;4927;52.472;13.108;2022-07-29T05:35:17;4.97;;;3.12;;
9775;SDS011;4927;52.472;13.108;2022-07-29T05:40:23;3.70;;;3.50;;
9775;SDS011;4927;52.472;13.108;2022-07-29T05:45:29;3.05;;;2.85;;
9775;SDS011;4927;52.472;13.108;2022-07-29T05:50:36;6.90;;;3.30;;
9775;SDS011;4927;52.472;13.108;2022-07-29T05:55:42;3.92;;;2.83;;
9775;SDS011;4927;52.472;13.108;2022-07-29T06:00:48;3.40;;;3.20;;
9775;SDS011;4927;52.472;13.108;2022-07-29T06:05:59;3.30;;;3.00;;
9775;SDS011;4927;52.472;13.108;2022-07-29T06:11:10;3.45;;;2.60;;
9775;SDS011;4927;52.472;13.108;2022-07-29T06:16:16;3.42;;;3.10;;
9775;SDS011;4927;52.472;13.108;2022-07-29T06:21:22;3.00;;;2.80;;
9775;SDS011;4927;52.472;13.108;2022-07-29T06:26:29;2.90;;;2.80;;
9775;SDS011;4927;52.472;13.108;2022-07-29T06:31:35;2.60;;;2.50;;
9775;SDS011;4927;52.472;13.108;2022-07-29T06:36:41;3.70;;;2.85;;
9775;SDS011;4927;52.472;13.108;2022-07-29T06:41:48;3.10;;;2.80;;
9775;SDS011;4927;52.472;13.108;2022-07-29T06:46:54;2.78;;;2.67;;
9775;SDS011;4927;52.472;13.108;2022-07-29T06:52:00;3.50;;;2.70;;
9775;SDS011;4927;52.472;13.108;2022-07-29T06:57:11;4.30;;;2.67;;
9775;SDS011;4927;52.472;13.108;2022-07-29T07:02:17;2.85;;;2.65;;
9775;SDS011;4927;52.472;13.108;2022-07-29T07:07:24;3.00;;;2.70;;
9775;SDS011;4927;52.472;13.108;2022-07-29T07:12:30;2.85;;;2.75;;
9775;SDS011;4927;52.472;13.108;2022-07-29T07:17:36;3.95;;;2.50;;
9775;SDS011;4927;52.472;13.108;2022-07-29T07:22:43;4.70;;;2.83;;
9775;SDS011;4927;52.472;13.108;2022-07-29T07:27:49;5.80;;;2.80;;
9775;SDS011;4927;52.472;13.108;2022-07-29T07:32:56;3.97;;;2.67;;
9775;SDS011;4927;52.472;13.108;2022-07-29T07:38:02;3.40;;;2.17;;
9775;SDS011;4927;52.472;13.108;2022-07-29T07:43:08;2.80;;;2.40;;
9775;SDS011;4927;52.472;13.108;2022-07-29T07:48:14;2.90;;;2.70;;
9775;SDS011;4927;52.472;13.108;2022-07-29T07:53:21;3.55;;;2.20;;
9775;SDS011;4927;52.472;13.108;2022-07-29T07:58:27;2.60;;;1.90;;
9775;SDS011;4927;52.472;13.108;2022-07-29T08:03:32;2.80;;;2.60;;
9775;SDS011;4927;52.472;13.108;2022-07-29T08:08:38;2.78;;;2.55;;
9775;SDS011;4927;52.472;13.108;2022-07-29T08:13:45;3.50;;;2.10;;
9775;SDS011;4927;52.472;13.108;2022-07-29T08:18:51;3.90;;;1.92;;
9775;SDS011;4927;52.472;13.108;2022-07-29T08:23:57;2.45;;;2.30;;
9775;SDS011;4927;52.472;13.108;2022-07-29T08:29:10;3.05;;;2.25;;
9775;SDS011;4927;52.472;13.108;2022-07-29T08:34:16;3.00;;;2.10;;
9775;SDS011;4927;52.472;13.108;2022-07-29T08:39:22;2.00;;;1.90;;
9775;SDS011;4927;52.472;13.108;2022-07-29T08:44:28;3.28;;;1.80;;
9775;SDS011;4927;52.472;13.108;2022-07-29T08:49:35;2.70;;;2.10;;
9775;SDS011;4927;52.472;13.108;2022-07-29T08:54:43;3.08;;;1.80;;
9775;SDS011;4927;52.472;13.108;2022-07-29T08:59:47;2.00;;;1.90;;
9775;SDS011;4927;52.472;13.108;2022-07-29T09:04:54;2.50;;;2.10;;
9775;SDS011;4927;52.472;13.108;2022-07-29T09:10:00;3.45;;;1.92;;
9775;SDS011;4927;52.472;13.108;2022-07-29T09:15:07;5.70;;;2.00;;
9775;SDS011;4927;52.472;13.108;2022-07-29T09:20:15;3.78;;;1.90;;
9775;SDS011;4927;52.472;13.108;2022-07-29T09:30:53;3.55;;;1.52;;
9775;SDS011;4927;52.472;13.108;2022-07-29T09:36:00;3.40;;;1.40;;
9775;SDS011;4927;52.472;13.108;2022-07-29T09:41:14;2.15;;;1.98;;
9775;SDS011;4927;52.472;13.108;2022-07-29T09:46:22;4.28;;;2.42;;
9775;SDS011;4927;52.472;13.108;2022-07-29T09:51:28;3.78;;;1.75;;
9775;SDS011;4927;52.472;13.108;2022-07-29T09:56:39;4.20;;;1.70;;
9775;SDS011;4927;52.472;13.108;2022-07-29T10:01:45;2.30;;;2.10;;
9775;SDS011;4927;52.472;13.108;2022-07-29T10:06:56;2.80;;;1.70;;
9775;SDS011;4927;52.472;13.108;2022-07-29T10:12:04;1.92;;;1.55;;
9775;SDS011;4927;52.472;13.108;2022-07-29T10:17:11;4.60;;;1.90;;
9775;SDS011;4927;52.472;13.108;2022-07-29T10:22:17;1.80;;;1.70;;
9775;SDS011;4927;52.472;13.108;2022-07-29T10:27:23;3.10;;;2.00;;
9775;SDS011;4927;52.472;13.108;2022-07-29T10:32:36;2.10;;;2.00;;
9775;SDS011;4927;52.472;13.108;2022-07-29T10:37:52;2.80;;;1.80;;
9775;SDS011;4927;52.472;13.108;2022-07-29T10:42:58;3.70;;;1.70;;
9775;SDS011;4927;52.472;13.108;2022-07-29T10:48:04;2.33;;;2.00;;
9775;SDS011;4927;52.472;13.108;2022-07-29T10:53:11;6.30;;;2.03;;
9775;SDS011;4927;52.472;13.108;2022-07-29T10:58:20;2.10;;;1.58;;
9775;SDS011;4927;52.472;13.108;2022-07-29T11:08:52;2.70;;;2.00;;
9775;SDS011;4927;52.472;13.108;2022-07-29T11:13:54;2.00;;;1.80;;
9775;SDS011;4927;52.472;13.108;2022-07-29T11:19:18;3.40;;;2.10;;
9775;SDS011;4927;52.472;13.108;2022-07-29T11:24:14;3.97;;;2.20;;
9775;SDS011;4927;52.472;13.108;2022-07-29T11:29:21;2.53;;;1.70;;
9775;SDS011;4927;52.472;13.108;2022-07-29T11:34:29;2.60;;;2.20;;
9775;SDS011;4927;52.472;13.108;2022-07-29T11:39:40;2.50;;;2.30;;
9775;SDS011;4927;52.472;13.108;2022-07-29T11:50:00;1.97;;;1.87;;
9775;SDS011;4927;52.472;13.108;2022-07-29T11:55:07;4.20;;;2.40;;
9775;SDS011;4927;52.472;13.108;2022-07-29T12:05:41;3.30;;;2.40;;
9775;SDS011;4927;52.472;13.108;2022-07-29T12:10:51;2.70;;;2.13;;
9775;SDS011;4927;52.472;13.108;2022-07-29T12:15:57;3.50;;;2.50;;
9775;SDS011;4927;52.472;13.108;2022-07-29T12:21:04;2.30;;;2.20;;
9775;SDS011;4927;52.472;13.108;2022-07-29T12:26:10;2.20;;;2.10;;
9775;SDS011;4927;52.472;13.108;2022-07-29T12:31:16;3.10;;;2.60;;
9775;SDS011;4927;52.472;13.108;2022-07-29T12:36:26;5.10;;;2.30;;
9775;SDS011;4927;52.472;13.108;2022-07-29T12:41:37;2.87;;;2.70;;
9775;SDS011;4927;52.472;13.108;2022-07-29T12:46:43;4.43;;;2.70;;
9775;SDS011;4927;52.472;13.108;2022-07-29T12:51:49;3.00;;;2.50;;
9775;SDS011;4927;52.472;13.108;2022-07-29T12:56:58;4.40;;;2.70;;
9775;SDS011;4927;52.472;13.108;2022-07-29T13:02:04;2.70;;;2.60;;
9775;SDS011;4927;52.472;13.108;2022-07-29T13:07:10;2.93;;;2.70;;
9775;SDS011;4927;52.472;13.108;2022-07-29T13:12:17;3.10;;;2.77;;
9775;SDS011;4927;52.472;13.108;2022-07-29T13:17:24;4.43;;;2.43;;
9775;SDS011;4927;52.472;13.108;2022-07-29T13:22:28;3.20;;;2.90;;
9775;SDS011;4927;52.472;13.108;2022-07-29T13:27:35;2.80;;;2.43;;
9775;SDS011;4927;52.472;13.108;2022-07-29T13:32:40;2.57;;;2.37;;
9775;SDS011;4927;52.472;13.108;2022-07-29T13:37:47;4.13;;;2.90;;
9775;SDS011;4927;52.472;13.108;2022-07-29T13:42:53;3.40;;;2.67;;
9775;SDS011;4927;52.472;13.108;2022-07-29T13:47:59;7.73;;;2.70;;
9775;SDS011;4927;52.472;13.108;2022-07-29T13:53:06;3.10;;;2.90;;
9775;SDS011;4927;52.472;13.108;2022-07-29T13:58:12;3.10;;;2.80;;
9775;SDS011;4927;52.472;13.108;2022-07-29T14:03:18;4.60;;;3.10;;
9775;SDS011;4927;52.472;13.108;2022-07-29T14:10:43;2.70;;;2.60;;
9775;SDS011;4927;52.472;13.108;2022-07-29T14:15:49;3.03;;;2.83;;
9775;SDS011;4927;52.472;13.108;2022-07-29T14:20:56;3.80;;;3.10;;
9775;SDS011;4927;52.472;13.108;2022-07-29T14:26:02;2.90;;;2.67;;
9775;SDS011;4927;52.472;13.108;2022-07-29T14:31:08;3.10;;;2.90;;
9775;SDS011;4927;52.472;13.108;2022-07-29T14:36:14;3.10;;;2.60;;
9775;SDS011;4927;52.472;13.108;2022-07-29T14:41:21;2.80;;;2.60;;
9775;SDS011;4927;52.472;13.108;2022-07-29T14:46:27;3.80;;;3.20;;
9775;SDS011;4927;52.472;13.108;2022-07-29T14:51:34;3.20;;;2.90;;
9775;SDS011;4927;52.472;13.108;2022-07-29T14:56:40;4.00;;;2.80;;
9775;SDS011;4927;52.472;13.108;2022-07-29T15:01:50;3.17;;;2.87;;
9775;SDS011;4927;52.472;13.108;2022-07-29T15:06:56;2.90;;;2.70;;
9775;SDS011;4927;52.472;13.108;2022-07-29T15:12:03;4.00;;;3.00;;
9775;SDS011;4927;52.472;13.108;2022-07-29T15:17:09;3.30;;;2.70;;
9775;SDS011;4927;52.472;13.108;2022-07-29T15:22:16;2.53;;;2.43;;
9775;SDS011;4927;52.472;13.108;2022-07-29T15:27:23;2.80;;;2.60;;
9775;SDS011;4927;52.472;13.108;2022-07-29T15:32:29;2.90;;;2.70;;
9775;SDS011;4927;52.472;13.108;2022-07-29T15:37:36;3.17;;;3.00;;
9775;SDS011;4927;52.472;13.108;2022-07-29T15:42:44;2.63;;;2.53;;
9775;SDS011;4927;52.472;13.108;2022-07-29T15:47:50;2.90;;;2.70;;
9775;SDS011;4927;52.472;13.108;2022-07-29T15:52:56;2.80;;;2.70;;
9775;SDS011;4927;52.472;13.108;2022-07-29T15:58:03;3.13;;;2.90;;
9775;SDS011;4927;52.472;13.108;2022-07-29T16:03:10;3.27;;;3.17;;
9775;SDS011;4927;52.472;13.108;2022-07-29T16:08:16;2.83;;;2.63;;
9775;SDS011;4927;52.472;13.108;2022-07-29T16:13:22;3.07;;;2.77;;
9775;SDS011;4927;52.472;13.108;2022-07-29T16:18:29;2.57;;;2.47;;
9775;SDS011;4927;52.472;13.108;2022-07-29T16:23:33;2.80;;;2.60;;
9775;SDS011;4927;52.472;13.108;2022-07-29T16:28:40;3.37;;;3.10;;
9775;SDS011;4927;52.472;13.108;2022-07-29T16:33:46;3.30;;;3.10;;
9775;SDS011;4927;52.472;13.108;2022-07-29T16:38:52;3.60;;;3.30;;
9775;SDS011;4927;52.472;13.108;2022-07-29T16:43:59;8.53;;;2.83;;
9775;SDS011;4927;52.472;13.108;2022-07-29T16:49:05;7.33;;;2.87;;
9775;SDS011;4927;52.472;13.108;2022-07-29T16:54:10;3.10;;;2.90;;
9775;SDS011;4927;52.472;13.108;2022-07-29T16:59:17;4.90;;;2.83;;
9775;SDS011;4927;52.472;13.108;2022-07-29T17:04:23;5.50;;;2.60;;
9775;SDS011;4927;52.472;13.108;2022-07-29T17:09:29;4.30;;;2.37;;
9775;SDS011;4927;52.472;13.108;2022-07-29T17:14:33;6.93;;;2.80;;
9775;SDS011;4927;52.472;13.108;2022-07-29T17:19:40;6.50;;;3.20;;
9775;SDS011;4927;52.472;13.108;2022-07-29T17:24:46;3.80;;;2.50;;
9775;SDS011;4927;52.472;13.108;2022-07-29T17:29:52;6.00;;;2.50;;
9775;SDS011;4927;52.472;13.108;2022-07-29T17:34:59;2.87;;;2.70;;
9775;SDS011;4927;52.472;13.108;2022-07-29T17:40:03;6.50;;;3.00;;
9775;SDS011;4927;52.472;13.108;2022-07-29T17:45:10;3.60;;;2.70;;
9775;SDS011;4927;52.472;13.108;2022-07-29T17:50:17;5.67;;;2.60;;
9775;SDS011;4927;52.472;13.108;2022-07-29T17:55:21;4.87;;;2.70;;
9775;SDS011;4927;52.472;13.108;2022-07-29T18:00:27;2.70;;;2.50;;
9775;SDS011;4927;52.472;13.108;2022-07-29T18:05:34;3.80;;;2.43;;
9775;SDS011;4927;52.472;13.108;2022-07-29T18:10:40;4.40;;;2.80;;
9775;SDS011;4927;52.472;13.108;2022-07-29T18:15:46;2.70;;;2.50;;
9775;SDS011;4927;52.472;13.108;2022-07-29T18:20:52;3.20;;;2.20;;
9775;SDS011;4927;52.472;13.108;2022-07-29T18:25:59;5.20;;;2.27;;
9775;SDS011;4927;52.472;13.108;2022-07-29T18:31:05;3.10;;;2.60;;
9775;SDS011;4927;52.472;13.108;2022-07-29T18:36:12;2.90;;;2.60;;
9775;SDS011;4927;52.472;13.108;2022-07-29T18:41:18;2.80;;;2.30;;
9775;SDS011;4927;52.472;13.108;2022-07-29T18:46:25;2.50;;;2.30;;
9775;SDS011;4927;52.472;13.108;2022-07-29T18:51:31;1.90;;;1.80;;
9775;SDS011;4927;52.472;13.108;2022-07-29T18:56:37;2.30;;;2.10;;
9775;SDS011;4927;52.472;13.108;2022-07-29T19:01:43;3.30;;;2.30;;
9775;SDS011;4927;52.472;13.108;2022-07-29T19:06:48;5.90;;;2.10;;
9775;SDS011;4927;52.472;13.108;2022-07-29T19:11:54;5.07;;;2.60;;
9775;SDS011;4927;52.472;13.108;2022-07-29T19:17:00;2.20;;;2.10;;
9775;SDS011;4927;52.472;13.108;2022-07-29T19:22:07;2.90;;;2.50;;
9775;SDS011;4927;52.472;13.108;2022-07-29T19:27:13;5.50;;;2.55;;
9775;SDS011;4927;52.472;13.108;2022-07-29T19:32:19;3.97;;;2.50;;
9775;SDS011;4927;52.472;13.108;2022-07-29T19:37:23;13.10;;;2.55;;
9775;SDS011;4927;52.472;13.108;2022-07-29T19:42:30;3.45;;;2.30;;
9775;SDS011;4927;52.472;13.108;2022-07-29T19:47:37;2.87;;;2.10;;
9775;SDS011;4927;52.472;13.108;2022-07-29T19:52:43;2.60;;;2.20;;
9775;SDS011;4927;52.472;13.108;2022-07-29T19:57:49;3.55;;;2.10;;
9775;SDS011;4927;52.472;13.108;2022-07-29T20:02:56;3.00;;;2.50;;
9775;SDS011;4927;52.472;13.108;2022-07-29T20:08:03;3.35;;;1.85;;
9775;SDS011;4927;52.472;13.108;2022-07-29T20:13:10;3.00;;;2.30;;
9775;SDS011;4927;52.472;13.108;2022-07-29T20:18:16;2.20;;;2.10;;
9775;SDS011;4927;52.472;13.108;2022-07-29T20:23:22;3.67;;;2.20;;
9775;SDS011;4927;52.472;13.108;2022-07-29T20:28:28;2.30;;;2.10;;
9775;SDS011;4927;52.472;13.108;2022-07-29T20:33:35;2.50;;;2.20;;
9775;SDS011;4927;52.472;13.108;2022-07-29T20:38:41;2.95;;;2.35;;
9775;SDS011;4927;52.472;13.108;2022-07-29T20:43:47;2.50;;;2.40;;
9775;SDS011;4927;52.472;13.108;2022-07-29T20:48:55;2.60;;;2.50;;
9775;SDS011;4927;52.472;13.108;2022-07-29T20:54:01;4.40;;;2.53;;
9775;SDS011;4927;52.472;13.108;2022-07-29T20:59:07;2.60;;;2.40;;
9775;SDS011;4927;52.472;13.108;2022-07-29T21:04:14;2.70;;;2.50;;
9775;SDS011;4927;52.472;13.108;2022-07-29T21:09:20;6.90;;;2.35;;
9775;SDS011;4927;52.472;13.108;2022-07-29T21:14:26;2.50;;;2.40;;
9775;SDS011;4927;52.472;13.108;2022-07-29T21:19:39;6.40;;;3.00;;
9775;SDS011;4927;52.472;13.108;2022-07-29T21:24:45;3.80;;;2.50;;
9775;SDS011;4927;52.472;13.108;2022-07-29T21:29:51;2.33;;;2.12;;
9775;SDS011;4927;52.472;13.108;2022-07-29T21:34:58;3.22;;;2.40;;
9775;SDS011;4927;52.472;13.108;2022-07-29T21:40:05;3.20;;;2.60;;
9775;SDS011;4927;52.472;13.108;2022-07-29T21:45:12;4.68;;;2.50;;
9775;SDS011;4927;52.472;13.108;2022-07-29T21:50:18;3.90;;;2.28;;
9775;SDS011;4927;52.472;13.108;2022-07-29T21:55:24;2.50;;;2.40;;
9775;SDS011;4927;52.472;13.108;2022-07-29T22:00:31;2.60;;;2.20;;
9775;SDS011;4927;52.472;13.108;2022-07-29T22:05:38;2.17;;;2.05;;
9775;SDS011;4927;52.472;13.108;2022-07-29T22:10:44;2.50;;;2.30;;
9775;SDS011;4927;52.472;13.108;2022-07-29T22:15:50;4.43;;;2.85;;
9775;SDS011;4927;52.472;13.108;2022-07-29T22:20:56;3.10;;;2.80;;
9775;SDS011;4927;52.472;13.108;2022-07-29T22:26:03;2.80;;;2.30;;
9775;SDS011;4927;52.472;13.108;2022-07-29T22:31:10;2.70;;;2.50;;
9775;SDS011;4927;52.472;13.108;2022-07-29T22:36:16;2.40;;;2.20;;
9775;SDS011;4927;52.472;13.108;2022-07-29T22:41:22;3.78;;;2.53;;
9775;SDS011;4927;52.472;13.108;2022-07-29T22:46:29;2.20;;;2.10;;
9775;SDS011;4927;52.472;13.108;2022-07-29T22:51:33;3.40;;;2.10;;
9775;SDS011;4927;52.472;13.108;2022-07-29T22:56:39;5.60;;;2.30;;
9775;SDS011;4927;52.472;13.108;2022-07-29T23:01:46;4.40;;;2.30;;
9775;SDS011;4927;52.472;13.108;2022-07-29T23:06:52;2.80;;;2.10;;
9775;SDS011;4927;52.472;13.108;2022-07-29T23:11:58;6.22;;;2.53;;
9775;SDS011;4927;52.472;13.108;2022-07-29T23:17:04;3.35;;;2.45;;
9775;SDS011;4927;52.472;13.108;2022-07-29T23:22:11;2.75;;;2.03;;
9775;SDS011;4927;52.472;13.108;2022-07-29T23:27:15;5.15;;;2.37;;
9775;SDS011;4927;52.472;13.108;2022-07-29T23:32:22;7.28;;;2.45;;
9775;SDS011;4927;52.472;13.108;2022-07-29T23:37:28;4.20;;;2.50;;
9775;SDS011;4927;52.472;13.108;2022-07-29T23:42:34;2.37;;;2.17;;
9775;SDS011;4927;52.472;13.108;2022-07-29T23:47:41;3.30;;;2.25;;
9775;SDS011;4927;52.472;13.108;2022-07-29T23:52:47;2.47;;;2.28;;
9775;SDS011;4927;52.472;13.108;2022-07-29T23:57:53;5.20;;;2.20;;
